createdAt,value
2023-03-24T00:00:50.032Z,10.30
2023-03-24T00:03:18.318Z,10.30
2023-03-24T00:05:50.494Z,10.30
2023-03-24T00:08:18.631Z,10.20
2023-03-24T00:10:48.632Z,10.20
2023-03-24T00:13:17.214Z,10.20
2023-03-24T00:15:45.471Z,10.10
2023-03-24T00:18:13.520Z,10.10
2023-03-24T00:20:42.353Z,10.10
2023-03-24T00:23:10.355Z,10.00
2023-03-24T00:25:40.218Z,9.90
2023-03-24T00:28:11.308Z,9.80
2023-03-24T00:30:39.769Z,9.80
2023-03-24T00:33:07.828Z,9.80
2023-03-24T00:35:35.965Z,9.70
2023-03-24T00:38:04.043Z,9.70
2023-03-24T00:40:32.084Z,9.70
2023-03-24T00:43:00.110Z,9.60
2023-03-24T00:45:34.507Z,9.60
2023-03-24T00:48:02.582Z,9.60
2023-03-24T00:50:33.551Z,9.60
2023-03-24T00:53:02.038Z,9.60
2023-03-24T00:55:30.138Z,9.60
2023-03-24T00:57:58.195Z,9.60
2023-03-24T01:00:27.240Z,9.50
2023-03-24T01:02:58.140Z,9.50
2023-03-24T01:05:28.143Z,9.50
2023-03-24T01:07:57.348Z,9.50
2023-03-24T01:10:26.631Z,9.50
2023-03-24T01:12:56.048Z,9.50
2023-03-24T01:15:26.508Z,9.50
2023-03-24T01:17:55.943Z,9.50
2023-03-24T01:20:24.261Z,9.50
2023-03-24T01:22:52.536Z,9.50
2023-03-24T01:25:22.023Z,9.50
2023-03-24T01:27:51.013Z,9.50
2023-03-24T01:30:20.663Z,9.60
2023-03-24T01:32:48.762Z,9.50
2023-03-24T01:35:18.460Z,9.50
2023-03-24T01:37:46.957Z,9.60
2023-03-24T01:40:19.020Z,9.60
2023-03-24T01:42:47.049Z,9.60
2023-03-24T01:45:55.999Z,9.60
2023-03-24T01:48:25.557Z,9.60
2023-03-24T01:50:57.799Z,9.60
2023-03-24T01:53:25.990Z,9.50
2023-03-24T01:55:54.165Z,9.50
2023-03-24T01:58:25.553Z,9.50
2023-03-24T02:01:07.394Z,9.50
2023-03-24T02:03:57.952Z,9.50
2023-03-24T02:06:28.141Z,9.50
2023-03-24T02:08:59.476Z,9.50
2023-03-24T02:11:30.638Z,9.60
2023-03-24T02:14:02.341Z,9.60
2023-03-24T02:16:41.751Z,9.60
2023-03-24T02:19:44.843Z,9.60
2023-03-24T02:22:41.097Z,9.60
2023-03-24T02:25:51.535Z,9.60
2023-03-24T02:28:29.666Z,9.60
2023-03-24T02:31:25.174Z,9.60
2023-03-24T02:34:41.142Z,9.60
2023-03-24T02:37:30.015Z,9.60
2023-03-24T02:40:32.292Z,9.60
2023-03-24T02:43:07.961Z,9.60
2023-03-24T02:45:37.343Z,9.60
2023-03-24T02:48:17.150Z,9.70
2023-03-24T02:50:48.743Z,9.70
2023-03-24T02:53:18.052Z,9.70
2023-03-24T02:56:09.911Z,9.70
2023-03-24T02:58:39.265Z,9.70
2023-03-24T03:01:08.311Z,9.80
2023-03-24T03:03:59.629Z,9.80
2023-03-24T03:06:29.531Z,9.80
2023-03-24T03:08:58.361Z,9.80
2023-03-24T03:11:27.774Z,9.80
2023-03-24T03:13:56.643Z,9.80
2023-03-24T03:16:29.096Z,9.80
2023-03-24T03:18:58.062Z,9.90
2023-03-24T03:21:27.189Z,9.80
2023-03-24T03:23:57.206Z,9.90
2023-03-24T03:26:28.659Z,9.90
2023-03-24T03:29:00.205Z,9.90
2023-03-24T03:31:31.009Z,9.90
2023-03-24T03:34:03.045Z,9.90
2023-03-24T03:36:32.238Z,10.00
2023-03-24T03:39:03.528Z,10.00
2023-03-24T03:41:34.097Z,10.00
2023-03-24T03:44:02.704Z,10.10
2023-03-24T03:46:30.837Z,10.00
2023-03-24T03:48:59.327Z,10.10
2023-03-24T03:51:27.399Z,10.10
2023-03-24T03:53:59.574Z,10.20
2023-03-24T03:56:29.808Z,10.20
2023-03-24T03:59:24.467Z,10.20
2023-03-24T04:01:52.654Z,10.20
2023-03-24T04:04:53.295Z,10.30
2023-03-24T04:07:38.824Z,10.30
2023-03-24T04:10:21.760Z,10.30
2023-03-24T04:13:06.855Z,10.30
2023-03-24T04:15:59.335Z,10.30
2023-03-24T04:19:00.134Z,10.30
2023-03-24T04:21:36.422Z,10.30
2023-03-24T04:24:16.908Z,10.40
2023-03-24T04:26:49.846Z,10.40
2023-03-24T04:29:21.101Z,10.40
2023-03-24T04:31:53.565Z,10.30
2023-03-24T04:34:22.378Z,10.40
2023-03-24T04:36:54.492Z,10.40
2023-03-24T04:39:39.223Z,10.30
2023-03-24T04:42:13.135Z,10.30
2023-03-24T04:44:42.497Z,10.30
2023-03-24T04:47:43.315Z,10.30
2023-03-24T04:50:45.598Z,10.30
2023-03-24T04:53:19.265Z,10.30
2023-03-24T04:55:55.552Z,10.30
2023-03-24T04:58:40.555Z,10.30
2023-03-24T05:01:09.238Z,10.30
2023-03-24T05:03:42.171Z,10.40
2023-03-24T05:06:11.409Z,10.30
2023-03-24T05:08:39.508Z,10.30
2023-03-24T05:11:08.192Z,10.40
2023-03-24T05:13:37.286Z,10.30
2023-03-24T05:16:06.494Z,10.30
2023-03-24T05:18:51.492Z,10.30
2023-03-24T05:21:20.634Z,10.40
2023-03-24T05:23:48.771Z,10.40
2023-03-24T05:26:16.852Z,10.40
2023-03-24T05:29:01.572Z,10.40
2023-03-24T05:31:29.838Z,10.50
2023-03-24T05:34:05.662Z,10.50
2023-03-24T05:36:40.336Z,10.50
2023-03-24T05:39:09.006Z,10.50
2023-03-24T05:41:46.836Z,10.60
2023-03-24T05:44:14.879Z,10.60
2023-03-24T05:46:45.731Z,10.60
2023-03-24T05:49:15.417Z,10.70
2023-03-24T05:51:43.611Z,10.70
2023-03-24T05:54:12.070Z,10.70
2023-03-24T05:56:44.197Z,10.80
2023-03-24T05:59:29.075Z,10.80
2023-03-24T06:02:08.599Z,10.90
2023-03-24T06:05:10.069Z,10.90
2023-03-24T06:07:38.371Z,10.90
2023-03-24T06:10:07.802Z,10.90
2023-03-24T06:12:43.706Z,11.00
2023-03-24T06:15:12.276Z,11.00
2023-03-24T06:17:43.274Z,11.00
2023-03-24T06:20:22.893Z,11.10
2023-03-24T06:23:00.368Z,11.10
2023-03-24T06:25:34.137Z,11.20
2023-03-24T06:28:16.187Z,11.20
2023-03-24T06:30:46.871Z,11.30
2023-03-24T06:33:22.269Z,11.30
2023-03-24T06:35:51.902Z,11.30
2023-03-24T06:38:20.122Z,11.30
2023-03-24T06:40:48.584Z,11.40
2023-03-24T06:43:16.815Z,11.40
2023-03-24T06:45:45.731Z,11.50
2023-03-24T06:48:20.369Z,11.50
2023-03-24T06:50:48.996Z,11.60
2023-03-24T06:53:19.141Z,11.60
2023-03-24T06:55:47.645Z,11.70
2023-03-24T06:58:16.045Z,11.70
2023-03-24T07:00:55.341Z,11.70
2023-03-24T07:03:38.659Z,11.80
2023-03-24T07:06:19.457Z,11.90
2023-03-24T07:08:53.752Z,12.00
2023-03-24T07:11:24.459Z,12.20
2023-03-24T07:13:59.404Z,12.30
2023-03-24T07:16:29.477Z,12.40
2023-03-24T07:19:11.052Z,12.50
2023-03-24T07:21:41.538Z,12.50
2023-03-24T07:24:11.147Z,12.60
2023-03-24T07:26:53.986Z,12.70
2023-03-24T07:29:24.981Z,12.70
2023-03-24T07:32:08.156Z,12.70
2023-03-24T07:34:37.055Z,12.80
2023-03-24T07:37:05.132Z,12.90
2023-03-24T07:39:34.544Z,12.90
2023-03-24T07:42:02.806Z,12.90
2023-03-24T07:45:02.801Z,12.80
2023-03-24T07:47:30.976Z,12.80
2023-03-24T07:49:59.012Z,12.80
2023-03-24T07:52:27.078Z,12.70
2023-03-24T07:54:58.294Z,12.70
2023-03-24T07:57:39.782Z,12.70
2023-03-24T08:00:15.114Z,12.70
2023-03-24T08:02:55.138Z,12.70
2023-03-24T08:05:41.799Z,12.70
2023-03-24T08:08:28.739Z,12.70
2023-03-24T08:10:58.172Z,12.60
2023-03-24T08:13:26.329Z,12.50
2023-03-24T08:15:54.449Z,12.50
2023-03-24T08:18:22.620Z,12.60
2023-03-24T08:20:50.913Z,12.50
2023-03-24T08:23:18.975Z,12.50
2023-03-24T08:25:47.654Z,12.50
2023-03-24T08:28:17.540Z,12.40
2023-03-24T08:30:46.285Z,12.50
2023-03-24T08:33:15.105Z,12.40
2023-03-24T08:35:45.983Z,12.50
2023-03-24T08:38:15.667Z,12.50
2023-03-24T08:40:45.500Z,12.50
2023-03-24T08:43:17.471Z,12.60
2023-03-24T08:45:46.087Z,12.70
2023-03-24T08:48:14.514Z,12.70
2023-03-24T08:50:42.749Z,12.80
2023-03-24T08:53:12.443Z,12.90
2023-03-24T08:55:43.167Z,12.90
2023-03-24T08:58:13.774Z,12.90
2023-03-24T09:00:44.141Z,13.00
2023-03-24T09:03:14.587Z,13.00
2023-03-24T09:05:54.274Z,13.00
2023-03-24T09:08:22.435Z,13.10
2023-03-24T09:10:51.370Z,13.10
2023-03-24T09:13:19.990Z,13.20
2023-03-24T09:15:50.216Z,13.20
2023-03-24T09:18:18.877Z,13.30
2023-03-24T09:20:47.058Z,13.30
2023-03-24T09:23:15.436Z,13.20
2023-03-24T09:25:43.466Z,13.30
2023-03-24T09:28:11.622Z,13.40
2023-03-24T09:30:39.748Z,13.60
2023-03-24T09:33:09.224Z,13.80
2023-03-24T09:35:37.448Z,13.90
2023-03-24T09:38:05.629Z,14.00
2023-03-24T09:40:37.250Z,14.00
2023-03-24T09:43:06.520Z,14.00
2023-03-24T09:45:35.554Z,13.90
2023-03-24T09:48:05.632Z,13.80
2023-03-24T09:50:38.133Z,13.70
2023-03-24T09:53:08.364Z,13.70
2023-03-24T09:55:36.412Z,13.70
2023-03-24T09:58:05.772Z,13.80
2023-03-24T10:00:34.541Z,14.00
2023-03-24T10:03:07.929Z,14.10
2023-03-24T10:05:40.436Z,14.10
2023-03-24T10:08:12.645Z,14.10
2023-03-24T10:10:54.760Z,14.10
2023-03-24T10:13:26.126Z,14.10
2023-03-24T10:15:57.136Z,14.20
2023-03-24T10:18:30.731Z,14.20
2023-03-24T10:21:02.270Z,14.30
2023-03-24T10:23:34.400Z,14.50
2023-03-24T10:26:06.413Z,14.50
2023-03-24T10:28:36.734Z,15.30
2023-03-24T10:31:06.690Z,15.60
2023-03-24T10:33:43.630Z,16.10
2023-03-24T10:36:14.847Z,16.10
2023-03-24T10:38:43.003Z,16.20
2023-03-24T10:41:15.203Z,16.10
2023-03-24T10:43:43.646Z,16.20
2023-03-24T10:46:12.159Z,16.00
2023-03-24T10:48:45.285Z,16.20
2023-03-24T10:51:19.532Z,16.00
2023-03-24T10:53:48.927Z,15.90
2023-03-24T10:56:17.974Z,16.00
2023-03-24T10:58:46.072Z,16.10
2023-03-24T11:01:24.255Z,16.20
2023-03-24T11:03:52.856Z,16.40
2023-03-24T11:06:22.645Z,16.50
2023-03-24T11:08:51.065Z,17.00
2023-03-24T11:11:30.293Z,17.10
2023-03-24T11:14:01.492Z,17.30
2023-03-24T11:16:30.520Z,17.00
2023-03-24T11:19:00.128Z,16.80
2023-03-24T11:21:29.747Z,17.00
2023-03-24T11:23:59.230Z,16.80
2023-03-24T11:26:31.242Z,16.80
2023-03-24T11:28:59.906Z,16.90
2023-03-24T11:31:30.614Z,17.20
2023-03-24T11:34:00.738Z,17.40
2023-03-24T11:36:46.857Z,17.40
2023-03-24T11:39:19.104Z,17.60
2023-03-24T11:41:53.512Z,18.20
2023-03-24T11:44:22.870Z,18.40
2023-03-24T11:46:52.680Z,18.00
2023-03-24T11:49:22.569Z,18.20
2023-03-24T11:51:54.093Z,18.30
2023-03-24T11:54:23.278Z,17.60
2023-03-24T11:56:52.890Z,18.10
2023-03-24T11:59:30.332Z,17.90
2023-03-24T12:02:02.458Z,17.70
2023-03-24T12:04:36.120Z,17.10
2023-03-24T12:07:28.923Z,17.30
2023-03-24T12:09:58.273Z,17.30
2023-03-24T12:12:31.145Z,17.20
2023-03-24T12:15:28.234Z,17.40
2023-03-24T12:18:01.728Z,16.90
2023-03-24T12:20:30.336Z,16.80
2023-03-24T12:23:01.437Z,16.90
2023-03-24T12:25:42.695Z,17.20
2023-03-24T12:28:41.196Z,17.40
2023-03-24T12:31:17.220Z,18.00
2023-03-24T12:33:50.442Z,18.10
2023-03-24T12:36:25.060Z,17.80
2023-03-24T12:39:05.493Z,17.50
2023-03-24T12:41:47.658Z,17.20
2023-03-24T12:44:33.992Z,17.20
2023-03-24T12:47:06.916Z,17.20
2023-03-24T12:49:42.529Z,17.40
2023-03-24T12:52:17.943Z,17.20
2023-03-24T12:54:51.177Z,17.60
2023-03-24T12:57:19.755Z,17.70
2023-03-24T12:59:49.065Z,18.10
2023-03-24T13:02:21.623Z,17.80
2023-03-24T13:04:49.889Z,17.60
2023-03-24T13:07:18.730Z,18.10
2023-03-24T13:09:49.767Z,18.20
2023-03-24T13:12:19.617Z,17.80
2023-03-24T13:14:54.148Z,17.30
2023-03-24T13:17:23.487Z,17.00
2023-03-24T13:19:51.562Z,16.70
2023-03-24T13:22:19.981Z,16.40
2023-03-24T13:24:49.385Z,16.50
2023-03-24T13:27:20.518Z,16.60
2023-03-24T13:30:08.765Z,16.60
2023-03-24T13:32:38.070Z,16.40
2023-03-24T13:35:11.900Z,16.60
2023-03-24T13:37:41.312Z,16.70
2023-03-24T13:40:13.070Z,16.40
2023-03-24T13:42:44.522Z,16.50
2023-03-24T13:45:23.428Z,16.50
2023-03-24T13:47:51.780Z,16.30
2023-03-24T13:50:19.996Z,16.60
2023-03-24T13:52:48.996Z,16.40
2023-03-24T13:55:21.995Z,16.40
2023-03-24T13:57:54.981Z,16.60
2023-03-24T14:00:23.945Z,16.30
2023-03-24T14:02:52.741Z,16.30
2023-03-24T14:05:42.826Z,16.20
2023-03-24T14:08:12.719Z,16.10
2023-03-24T14:10:46.455Z,16.10
2023-03-24T14:13:39.018Z,15.80
2023-03-24T14:16:36.093Z,15.60
2023-03-24T14:19:19.246Z,15.50
2023-03-24T14:21:52.641Z,15.50
2023-03-24T14:24:24.807Z,15.60
2023-03-24T14:26:54.213Z,15.40
2023-03-24T14:29:48.916Z,15.30
2023-03-24T14:32:20.680Z,15.20
2023-03-24T14:34:53.854Z,15.30
2023-03-24T14:37:22.168Z,15.40
2023-03-24T14:39:50.389Z,15.50
2023-03-24T14:42:29.977Z,15.60
2023-03-24T14:44:58.472Z,15.60
2023-03-24T14:47:28.467Z,15.70
2023-03-24T14:49:58.034Z,15.90
2023-03-24T14:52:28.447Z,15.90
2023-03-24T14:54:58.174Z,15.80
2023-03-24T14:57:28.480Z,15.70
2023-03-24T15:00:01.092Z,15.50
2023-03-24T15:02:33.021Z,15.30
2023-03-24T15:05:20.517Z,15.30
2023-03-24T15:08:04.637Z,15.10
2023-03-24T15:10:34.349Z,15.10
2023-03-24T15:13:03.765Z,15.00
2023-03-24T15:15:31.865Z,15.20
2023-03-24T15:17:59.937Z,15.20
2023-03-24T15:20:29.320Z,15.30
2023-03-24T15:22:57.733Z,15.30
2023-03-24T15:25:28.950Z,15.40
2023-03-24T15:27:57.757Z,15.20
2023-03-24T15:30:27.305Z,15.00
2023-03-24T15:32:55.352Z,15.00
2023-03-24T15:35:23.873Z,15.10
2023-03-24T15:37:52.363Z,14.80
2023-03-24T15:40:34.269Z,14.90
2023-03-24T15:43:03.101Z,14.80
2023-03-24T15:45:33.328Z,14.80
2023-03-24T15:48:05.541Z,14.70
2023-03-24T15:50:34.933Z,14.70
2023-03-24T15:53:04.211Z,14.70
2023-03-24T15:55:34.908Z,14.70
2023-03-24T15:58:04.398Z,14.80
2023-03-24T16:00:38.765Z,14.70
2023-03-24T16:03:07.183Z,14.70
2023-03-24T16:05:35.533Z,14.70
2023-03-24T16:08:05.831Z,14.60
2023-03-24T16:10:39.442Z,14.60
2023-03-24T16:13:15.528Z,14.40
2023-03-24T16:15:46.083Z,14.50
2023-03-24T16:18:16.629Z,14.40
2023-03-24T16:20:44.682Z,14.20
2023-03-24T16:23:12.774Z,14.20
2023-03-24T16:25:41.567Z,14.20
2023-03-24T16:28:11.770Z,14.20
2023-03-24T16:30:40.927Z,14.20
2023-03-24T16:33:12.580Z,14.30
2023-03-24T16:35:40.896Z,14.10
2023-03-24T16:38:10.582Z,14.10
2023-03-24T16:40:40.255Z,14.10
2023-03-24T16:43:08.289Z,14.00
2023-03-24T16:45:36.387Z,14.00
2023-03-24T16:48:04.467Z,14.00
2023-03-24T16:50:35.521Z,13.90
2023-03-24T16:53:04.660Z,13.80
2023-03-24T16:55:32.751Z,13.70
2023-03-24T16:58:01.096Z,13.70
2023-03-24T17:00:29.985Z,13.60
2023-03-24T17:03:00.020Z,13.60
2023-03-24T17:05:29.359Z,13.60
2023-03-24T17:07:58.877Z,13.50
2023-03-24T17:10:26.967Z,13.50
2023-03-24T17:12:56.027Z,13.40
2023-03-24T17:15:25.671Z,13.40
2023-03-24T17:17:53.791Z,13.40
2023-03-24T17:20:22.545Z,13.30
2023-03-24T17:22:51.746Z,13.20
2023-03-24T17:25:22.642Z,13.20
2023-03-24T17:27:50.980Z,13.10
2023-03-24T17:30:20.386Z,13.10
2023-03-24T17:32:48.639Z,13.00
2023-03-24T17:35:17.623Z,13.00
2023-03-24T17:37:46.207Z,12.90
2023-03-24T17:40:15.919Z,12.80
2023-03-24T17:42:46.676Z,12.80
2023-03-24T17:45:15.788Z,12.70
2023-03-24T17:47:43.871Z,12.70
2023-03-24T17:50:12.288Z,12.70
2023-03-24T17:52:41.632Z,12.60
2023-03-24T17:55:10.141Z,12.60
2023-03-24T17:57:38.168Z,12.50
2023-03-24T18:00:11.992Z,12.40
2023-03-24T18:02:40.144Z,12.30
2023-03-24T18:05:09.111Z,12.20
2023-03-24T18:07:37.285Z,12.10
2023-03-24T18:10:05.904Z,12.10
2023-03-24T18:12:33.917Z,12.10
2023-03-24T18:15:02.090Z,12.00
2023-03-24T18:17:31.579Z,11.90
2023-03-24T18:20:09.010Z,11.90
2023-03-24T18:22:37.881Z,11.90
2023-03-24T18:25:08.615Z,11.80
2023-03-24T18:27:37.185Z,11.80
2023-03-24T18:30:05.679Z,11.70
2023-03-24T18:32:36.028Z,11.70
2023-03-24T18:35:05.085Z,11.60
2023-03-24T18:37:33.241Z,11.60
2023-03-24T18:40:01.342Z,11.60
2023-03-24T18:42:29.428Z,11.50
2023-03-24T18:44:57.451Z,11.50
2023-03-24T18:47:25.629Z,11.50
2023-03-24T18:49:55.014Z,11.40
2023-03-24T18:52:23.065Z,11.40
2023-03-24T18:54:52.542Z,11.40
2023-03-24T18:57:21.381Z,11.30
2023-03-24T18:59:49.411Z,11.30
2023-03-24T19:02:17.530Z,11.30
2023-03-24T19:04:46.294Z,11.30
2023-03-24T19:07:16.427Z,11.20
2023-03-24T19:09:44.487Z,11.20
2023-03-24T19:12:17.061Z,11.20
2023-03-24T19:14:45.114Z,11.20
2023-03-24T19:17:13.178Z,11.10
2023-03-24T19:19:42.062Z,11.00
2023-03-24T19:22:10.118Z,11.10
2023-03-24T19:24:39.543Z,11.00
2023-03-24T19:27:08.487Z,10.90
2023-03-24T19:29:37.497Z,11.00
2023-03-24T19:32:05.792Z,10.90
2023-03-24T19:34:34.043Z,10.90
2023-03-24T19:37:02.134Z,10.80
2023-03-24T19:39:30.502Z,10.80
2023-03-24T19:42:00.190Z,10.80
2023-03-24T19:44:28.406Z,10.70
2023-03-24T19:46:56.517Z,10.70
2023-03-24T19:49:24.598Z,10.80
2023-03-24T19:51:52.630Z,10.80
2023-03-24T19:54:20.849Z,10.70
2023-03-24T19:56:48.958Z,10.80
2023-03-24T19:59:18.544Z,10.70
2023-03-24T20:01:46.684Z,10.70
2023-03-24T20:04:15.121Z,10.70
2023-03-24T20:06:45.013Z,10.60
2023-03-24T20:09:13.097Z,10.50
2023-03-24T20:11:41.339Z,10.50
2023-03-24T20:14:09.908Z,10.40
2023-03-24T20:16:39.350Z,10.40
2023-03-24T20:19:07.376Z,10.40
2023-03-24T20:21:35.427Z,10.30
2023-03-24T20:24:04.056Z,10.20
2023-03-24T20:26:33.337Z,10.20
2023-03-24T20:29:01.485Z,10.10
2023-03-24T20:31:29.567Z,10.00
2023-03-24T20:33:59.296Z,9.90
2023-03-24T20:36:27.334Z,9.90
2023-03-24T20:38:59.396Z,9.90
2023-03-24T20:41:27.630Z,9.90
2023-03-24T20:43:56.389Z,9.80
2023-03-24T20:46:24.453Z,9.80
2023-03-24T20:48:52.564Z,9.70
2023-03-24T20:51:21.984Z,9.80
2023-03-24T20:53:50.361Z,9.70
2023-03-24T20:56:19.045Z,9.70
2023-03-24T20:58:47.199Z,9.70
2023-03-24T21:01:20.637Z,9.70
2023-03-24T21:03:49.068Z,9.60
2023-03-24T21:06:17.410Z,9.60
2023-03-24T21:08:46.834Z,9.60
2023-03-24T21:11:14.966Z,9.60
2023-03-24T21:13:43.959Z,9.60
2023-03-24T21:16:12.539Z,9.50
2023-03-24T21:18:42.721Z,9.60
2023-03-24T21:21:12.669Z,9.50
2023-03-24T21:23:41.135Z,9.50
2023-03-24T21:26:13.509Z,9.40
2023-03-24T21:28:41.553Z,9.40
2023-03-24T21:31:10.384Z,9.30
2023-03-24T21:33:40.810Z,9.30
2023-03-24T21:36:09.982Z,9.30
2023-03-24T21:38:39.154Z,9.30
2023-03-24T21:41:07.292Z,9.30
2023-03-24T21:43:36.925Z,9.30
2023-03-24T21:46:05.166Z,9.20
2023-03-24T21:48:35.078Z,9.20
2023-03-24T21:51:03.953Z,9.20
2023-03-24T21:53:32.089Z,9.20
2023-03-24T21:56:04.480Z,9.20
2023-03-24T21:58:32.823Z,9.10
2023-03-24T22:01:02.335Z,9.10
2023-03-24T22:03:30.547Z,9.10
2023-03-24T22:05:58.759Z,9.00
2023-03-24T22:08:30.689Z,9.00
2023-03-24T22:10:59.234Z,9.00
2023-03-24T22:13:27.411Z,9.00
2023-03-24T22:15:56.253Z,8.90
2023-03-24T22:18:25.888Z,8.90
2023-03-24T22:20:55.394Z,8.80
2023-03-24T22:23:24.000Z,8.80
2023-03-24T22:25:53.017Z,8.80
2023-03-24T22:28:21.217Z,8.90
2023-03-24T22:30:49.264Z,8.80
2023-03-24T22:33:17.427Z,8.80
2023-03-24T22:35:46.853Z,8.80
2023-03-24T22:38:16.036Z,8.80
2023-03-24T22:40:44.195Z,8.70
2023-03-24T22:43:12.261Z,8.60
2023-03-24T22:45:40.302Z,8.60
2023-03-24T22:48:08.387Z,8.60
2023-03-24T22:50:36.521Z,8.60
2023-03-24T22:53:05.936Z,8.60
2023-03-24T22:55:33.986Z,8.60
2023-03-24T22:58:02.041Z,8.60
2023-03-24T23:00:31.500Z,8.60
2023-03-24T23:02:59.719Z,8.50
2023-03-24T23:05:27.872Z,8.50
2023-03-24T23:07:56.013Z,8.50
2023-03-24T23:10:25.900Z,8.50
2023-03-24T23:12:54.359Z,8.40
2023-03-24T23:15:23.372Z,8.40
2023-03-24T23:17:52.128Z,8.40
2023-03-24T23:20:21.066Z,8.30
2023-03-24T23:22:49.124Z,8.30
2023-03-24T23:25:19.124Z,8.30
2023-03-24T23:27:48.599Z,8.30
2023-03-24T23:30:16.828Z,8.30
2023-03-24T23:32:47.015Z,8.20
2023-03-24T23:35:15.578Z,8.20
2023-03-24T23:37:43.985Z,8.20
2023-03-24T23:40:14.928Z,8.20
2023-03-24T23:42:43.892Z,8.20
2023-03-24T23:45:15.040Z,8.20
2023-03-24T23:47:43.415Z,8.20
2023-03-24T23:50:12.274Z,8.20
2023-03-24T23:52:41.309Z,8.20
2023-03-24T23:55:10.330Z,8.20
2023-03-24T23:57:38.796Z,8.20
